Time;durP1;ratioP1;P1;durP2;ratioP2;P2;SDS_P1;SDS_P2;PMS_P1;PMS_P2;Temp;Humidity;BMP_temperature;BMP_pressure;BME280_temperature;BME280_humidity;BME280_pressure;Samples;Min_cycle;Max_cycle;Signal;HPM_P1;HPM_P2
2023/09/26 00:00:08;;;;;;;4.15;1.73;;;;;;;11.71;100.00;102057.03;6228759;28;20050;-72
2023/09/26 00:03:12;;;;;;;5.95;2.75;;;;;;;11.69;100.00;102052.69;6229337;28;20580;-72
2023/09/26 00:06:20;;;;;;;4.13;2.10;;;;;;;11.68;100.00;102048.34;6229141;28;20077;-72
2023/09/26 00:09:23;;;;;;;6.27;1.97;;;;;;;11.58;100.00;102054.00;6229008;28;20057;-72
2023/09/26 00:12:24;;;;;;;4.28;2.50;;;;;;;11.51;100.00;102050.75;6228902;28;20057;-72
2023/09/26 00:15:26;;;;;;;5.88;2.85;;;;;;;11.52;100.00;102051.59;6228838;28;20493;-72
2023/09/26 00:18:28;;;;;;;7.97;2.65;;;;;;;11.53;100.00;102059.44;6228581;28;20057;-72
2023/09/26 00:21:29;;;;;;;3.45;2.15;;;;;;;11.57;100.00;102052.28;6228383;28;20050;-72
2023/09/26 00:24:32;;;;;;;5.75;2.20;;;;;;;11.55;100.00;102054.97;6228753;28;20052;-72
2023/09/26 00:27:33;;;;;;;4.32;2.50;;;;;;;11.49;100.00;102049.94;6228541;28;20378;-72
2023/09/26 00:30:35;;;;;;;4.70;2.63;;;;;;;11.36;100.00;102054.78;6228010;28;20053;-72
2023/09/26 00:33:36;;;;;;;6.28;2.53;;;;;;;11.33;100.00;102054.03;6228325;28;20053;-72
2023/09/26 00:36:38;;;;;;;4.30;2.38;;;;;;;11.33;100.00;102052.25;6228237;28;20053;-72
2023/09/26 00:39:40;;;;;;;5.03;2.90;;;;;;;11.26;100.00;102053.38;6227817;28;20346;-72
2023/09/26 00:42:42;;;;;;;6.07;2.70;;;;;;;11.29;100.00;102058.53;6228488;28;20064;-72
2023/09/26 00:45:44;;;;;;;6.68;2.70;;;;;;;11.28;100.00;102056.81;6228098;28;20050;-72
2023/09/26 00:48:46;;;;;;;7.47;3.28;;;;;;;11.20;100.00;102052.75;6227680;28;20049;-72
2023/09/26 00:51:48;;;;;;;6.75;2.80;;;;;;;11.18;100.00;102053.66;6227922;28;20049;-72
2023/09/26 00:54:51;;;;;;;5.57;2.72;;;;;;;11.17;100.00;102051.94;6227877;28;20061;-72
2023/09/26 00:57:54;;;;;;;4.05;2.70;;;;;;;11.14;100.00;102049.41;6227711;28;20064;-72
2023/09/26 01:00:55;;;;;;;5.53;2.40;;;;;;;11.12;100.00;102045.09;6213267;28;20132;-72
2023/09/26 01:03:58;;;;;;;3.13;2.25;;;;;;;11.12;100.00;102048.59;6213392;28;20050;-72
2023/09/26 01:06:59;;;;;;;3.92;2.55;;;;;;;11.12;100.00;102045.09;6225922;28;20061;-72
2023/09/26 01:10:03;;;;;;;4.40;2.13;;;;;;;11.11;100.00;102046.03;6227556;28;20046;-72
2023/09/26 01:13:05;;;;;;;4.18;2.47;;;;;;;11.06;100.00;102047.97;6227706;28;20056;-72
2023/09/26 01:16:17;;;;;;;4.03;1.95;;;;;;;11.03;100.00;102048.91;6227598;28;20073;-72
2023/09/26 01:19:18;;;;;;;3.88;2.15;;;;;;;10.97;100.00;102041.25;6223678;28;20359;-71
2023/09/26 01:22:20;;;;;;;2.17;1.63;;;;;;;10.93;100.00;102044.88;6219181;28;20056;-71
2023/09/26 01:25:23;;;;;;;3.58;1.90;;;;;;;10.98;100.00;102045.59;6227211;28;20045;-72
2023/09/26 01:28:24;;;;;;;7.40;2.03;;;;;;;10.96;100.00;102041.31;6227087;28;20453;-72
2023/09/26 01:31:26;;;;;;;4.88;1.83;;;;;;;10.95;100.00;102034.34;6227107;28;20081;-72
2023/09/26 01:34:27;;;;;;;2.83;1.77;;;;;;;10.96;100.00;102031.66;6226888;28;20058;-72
2023/09/26 01:37:28;;;;;;;4.18;1.80;;;;;;;10.90;100.00;102029.19;6226904;28;20050;-72
2023/09/26 01:40:31;;;;;;;2.45;1.80;;;;;;;10.86;100.00;102035.50;6225815;28;20054;-71
2023/09/26 01:43:34;;;;;;;4.38;1.88;;;;;;;10.90;100.00;102032.72;6227060;28;20442;-71
2023/09/26 01:46:36;;;;;;;3.10;2.17;;;;;;;10.89;100.00;102038.00;6226653;28;20045;-71
2023/09/26 01:49:39;;;;;;;4.25;2.30;;;;;;;10.79;100.00;102033.97;6226526;28;20046;-72
2023/09/26 01:52:41;;;;;;;5.97;2.17;;;;;;;10.79;100.00;102033.97;6226632;28;20050;-72
2023/09/26 01:55:43;;;;;;;3.13;1.80;;;;;;;10.74;100.00;102028.88;6226829;28;20054;-72
2023/09/26 01:58:45;;;;;;;4.85;1.70;;;;;;;10.75;100.00;102038.47;6226145;28;20056;-72
2023/09/26 02:01:46;;;;;;;3.63;1.73;;;;;;;10.68;100.00;102042.22;6226262;28;20358;-72
2023/09/26 02:04:48;;;;;;;2.63;1.67;;;;;;;10.62;100.00;102045.03;6226446;28;20139;-71
2023/09/26 02:07:50;;;;;;;7.88;2.05;;;;;;;10.60;100.00;102045.09;6226353;28;20072;-72
2023/09/26 02:10:53;;;;;;;5.72;1.85;;;;;;;10.61;100.00;102040.69;6226125;28;20049;-72
2023/09/26 02:13:54;;;;;;;3.50;1.85;;;;;;;10.56;100.00;102038.22;6226227;28;20434;-72
2023/09/26 02:16:56;;;;;;;5.13;1.70;;;;;;;10.62;100.00;102039.78;6226057;28;20072;-72
2023/09/26 02:19:57;;;;;;;3.28;1.80;;;;;;;10.59;100.00;102035.50;6225828;28;20057;-72
2023/09/26 02:22:59;;;;;;;4.25;1.90;;;;;;;10.53;100.00;102040.09;6226345;28;20430;-72
2023/09/26 02:26:02;;;;;;;1.88;1.38;;;;;;;10.52;100.00;102033.13;6226119;28;20085;-72
2023/09/26 02:29:03;;;;;;;3.35;1.77;;;;;;;10.47;100.00;102030.63;6225957;28;20308;-72
2023/09/26 02:32:05;;;;;;;2.45;1.63;;;;;;;10.49;100.00;102020.06;6226101;28;20092;-72
2023/09/26 02:35:08;;;;;;;3.53;1.80;;;;;;;10.48;100.00;102019.22;6226225;28;20064;-72
2023/09/26 02:38:09;;;;;;;4.95;1.83;;;;;;;10.38;100.00;102018.66;6225693;28;20481;-72
2023/09/26 02:41:13;;;;;;;4.28;1.88;;;;;;;10.31;100.00;102016.25;6225668;28;20486;-72
2023/09/26 02:44:14;;;;;;;2.55;1.63;;;;;;;10.25;100.00;102019.94;6226023;28;20062;-72
2023/09/26 02:47:16;;;;;;;5.13;1.60;;;;;;;10.26;100.00;102015.53;6224965;28;20056;-72
2023/09/26 02:50:17;;;;;;;2.03;1.33;;;;;;;10.24;100.00;102012.97;6225787;28;20057;-72
2023/09/26 02:53:19;;;;;;;3.38;1.63;;;;;;;10.19;100.00;102019.25;6228764;28;20357;-72
2023/09/26 02:56:22;;;;;;;2.30;1.85;;;;;;;10.13;100.00;102010.66;6230647;28;20057;-72
2023/09/26 02:59:23;;;;;;;2.40;1.50;;;;;;;10.09;100.00;102006.41;6217704;28;20368;-73
2023/09/26 03:02:25;;;;;;;1.85;1.60;;;;;;;10.08;100.00;102012.59;6203112;28;20043;-71
2023/09/26 03:05:26;;;;;;;5.22;1.58;;;;;;;10.09;100.00;102010.81;6211817;28;20462;-71
2023/09/26 03:08:27;;;;;;;3.33;1.98;;;;;;;10.06;100.00;102008.28;6199492;28;20042;-71
2023/09/26 03:11:31;;;;;;;2.58;1.52;;;;;;;10.09;100.00;102003.78;6221814;28;20054;-73
2023/09/26 03:14:33;;;;;;;2.47;1.67;;;;;;;10.06;100.00;102019.63;6230362;28;20054;-72
2023/09/26 03:17:34;;;;;;;3.50;2.13;;;;;;;10.05;100.00;102014.44;6228356;28;20054;-72
2023/09/26 03:20:38;;;;;;;1.75;1.50;;;;;;;10.05;100.00;102006.56;6194007;28;20047;-72
2023/09/26 03:23:39;;;;;;;3.13;1.65;;;;;;;10.01;100.00;102007.56;6202819;28;20053;-72
2023/09/26 03:26:43;;;;;;;4.28;1.58;;;;;;;9.95;100.00;102005.97;6192218;28;20438;-72
2023/09/26 03:29:44;;;;;;;2.35;1.63;;;;;;;9.94;100.00;102001.63;6191324;28;20411;-71
2023/09/26 03:32:45;;;;;;;4.18;1.90;;;;;;;9.96;100.00;101998.97;6194168;28;20057;-72
2023/09/26 03:35:47;;;;;;;7.57;2.10;;;;;;;9.97;100.00;102000.69;6191713;28;20458;-71
2023/09/26 03:38:50;;;;;;;2.90;1.50;;;;;;;9.91;100.00;102002.59;6193203;28;20049;-71
2023/09/26 03:41:53;;;;;;;2.90;1.90;;;;;;;9.89;100.00;101993.88;6192336;28;20047;-72
2023/09/26 03:44:54;;;;;;;2.67;1.85;;;;;;;9.84;100.00;101995.78;6192502;28;20057;-71
2023/09/26 03:47:55;;;;;;;2.28;1.70;;;;;;;9.78;100.00;101982.00;6192686;28;20043;-72
2023/09/26 03:50:59;;;;;;;4.65;2.15;;;;;;;9.74;100.00;101986.47;6193396;28;20038;-71
2023/09/26 03:54:01;;;;;;;3.45;1.92;;;;;;;9.77;100.00;101993.41;6219543;28;20053;-72
2023/09/26 03:57:04;;;;;;;4.65;1.50;;;;;;;9.77;100.00;101993.41;6229131;28;20050;-72
2023/09/26 04:00:15;;;;;;;3.67;2.10;;;;;;;9.79;100.00;101978.47;6214147;28;20046;-72
2023/09/26 04:03:17;;;;;;;3.42;1.73;;;;;;;9.72;100.00;101980.44;6180003;28;20057;-72
2023/09/26 04:06:18;;;;;;;2.60;1.77;;;;;;;9.71;100.00;101980.44;6180885;28;20043;-73
2023/09/26 04:09:20;;;;;;;5.10;2.00;;;;;;;9.70;100.00;101978.75;6180163;28;20047;-73
2023/09/26 04:12:22;;;;;;;3.63;1.58;;;;;;;9.70;100.00;101976.13;6180697;28;20050;-72
2023/09/26 04:15:24;;;;;;;3.30;1.80;;;;;;;9.60;100.00;101975.53;6180427;28;20046;-74
2023/09/26 04:18:25;;;;;;;2.72;1.83;;;;;;;9.65;100.00;101969.22;6180305;28;20046;-72
2023/09/26 04:21:27;;;;;;;4.32;2.50;;;;;;;9.60;100.00;101965.03;6180161;28;20057;-74
2023/09/26 04:24:28;;;;;;;3.78;2.28;;;;;;;9.60;100.00;101965.88;6180197;28;20051;-73
2023/09/26 04:27:31;;;;;;;3.85;2.10;;;;;;;9.62;100.00;101964.06;6180015;28;20363;-73
2023/09/26 04:30:36;;;;;;;4.55;2.08;;;;;;;9.63;100.00;101959.69;6179726;28;20058;-73
2023/09/26 04:33:38;;;;;;;2.83;1.67;;;;;;;9.61;100.00;101951.84;6189487;28;20043;-73
2023/09/26 04:36:39;;;;;;;7.35;2.08;;;;;;;9.62;100.00;101950.09;6200778;28;20059;-73
2023/09/26 04:39:41;;;;;;;3.30;2.00;;;;;;;9.62;100.00;101952.72;6189134;28;20054;-73
2023/09/26 04:42:45;;;;;;;6.30;2.13;;;;;;;9.58;100.00;101951.06;6190274;28;20125;-72
2023/09/26 04:45:47;;;;;;;4.10;2.17;;;;;;;9.48;100.00;101950.50;6190122;28;20046;-73
2023/09/26 04:48:48;;;;;;;3.25;2.17;;;;;;;9.49;100.00;101956.59;6190536;28;20046;-73
2023/09/26 04:51:50;;;;;;;3.95;2.03;;;;;;;9.50;100.00;101951.31;6193931;28;20069;-73
2023/09/26 04:54:52;;;;;;;3.95;2.25;;;;;;;9.54;100.00;101947.72;6180770;28;20459;-73
2023/09/26 04:57:54;;;;;;;2.95;2.20;;;;;;;9.54;100.00;101955.59;6179523;28;20062;-73
2023/09/26 05:00:56;;;;;;;6.18;2.10;;;;;;;9.57;100.00;101960.72;6191656;28;20042;-73
2023/09/26 05:03:57;;;;;;;6.28;2.40;;;;;;;9.58;100.00;101958.94;6216973;28;20060;-73
2023/09/26 05:06:59;;;;;;;5.32;1.85;;;;;;;9.55;100.00;101956.44;6227554;28;20351;-73
2023/09/26 05:10:00;;;;;;;2.97;2.25;;;;;;;9.51;100.00;101955.66;6227318;28;20050;-73
2023/09/26 05:13:03;;;;;;;5.30;2.50;;;;;;;9.54;100.00;101959.97;6227795;28;20057;-73
2023/09/26 05:16:04;;;;;;;4.55;2.50;;;;;;;9.55;100.00;101964.31;6226486;28;20099;-73
2023/09/26 05:19:06;;;;;;;4.00;2.40;;;;;;;9.49;100.00;101962.72;6214164;28;20054;-73
2023/09/26 05:22:07;;;;;;;4.32;2.20;;;;;;;9.50;100.00;101966.22;6214556;28;20066;-73
2023/09/26 05:25:09;;;;;;;3.05;2.13;;;;;;;9.52;100.00;101965.25;6226460;28;20057;-73
2023/09/26 05:28:12;;;;;;;4.55;2.40;;;;;;;9.49;100.00;101972.34;6227141;28;20054;-73
2023/09/26 05:31:14;;;;;;;4.00;2.17;;;;;;;9.51;100.00;101963.53;6227026;28;20046;-73
2023/09/26 05:34:15;;;;;;;6.63;2.35;;;;;;;9.49;100.00;101962.72;6227083;28;20054;-73
2023/09/26 05:37:16;;;;;;;4.30;2.35;;;;;;;9.52;100.00;101961.78;6216515;28;20450;-73
2023/09/26 05:40:18;;;;;;;4.22;2.55;;;;;;;9.55;100.00;101964.31;6201606;28;20050;-73
2023/09/26 05:43:21;;;;;;;4.68;2.90;;;;;;;9.51;100.00;101965.31;6202520;28;20466;-73
2023/09/26 05:46:23;;;;;;;5.13;2.97;;;;;;;9.54;100.00;101965.22;6194774;28;20058;-73
2023/09/26 05:49:24;;;;;;;5.18;2.75;;;;;;;9.61;100.00;101967.59;6185662;28;20046;-73
2023/09/26 05:52:25;;;;;;;5.88;2.65;;;;;;;9.62;100.00;101966.69;6178390;28;20474;-73
2023/09/26 05:55:27;;;;;;;8.88;2.75;;;;;;;9.59;100.00;101969.44;6188054;28;20050;-73
2023/09/26 05:58:30;;;;;;;4.10;2.55;;;;;;;9.61;100.00;101974.63;6191052;28;20053;-73
2023/09/26 06:01:32;;;;;;;6.32;3.00;;;;;;;9.67;100.00;101971.81;6177631;28;20066;-73
2023/09/26 06:04:33;;;;;;;3.80;2.58;;;;;;;9.73;100.00;101960.28;6183698;28;20053;-73
2023/09/26 06:07:34;;;;;;;9.65;3.28;;;;;;;9.76;100.00;101975.91;6198422;28;20460;-73
2023/09/26 06:10:36;;;;;;;4.70;2.33;;;;;;;9.84;100.00;101968.69;6189056;28;20051;-73
2023/09/26 06:13:39;;;;;;;5.47;3.28;;;;;;;9.88;100.00;101973.78;6182118;28;20051;-73
2023/09/26 06:16:41;;;;;;;4.53;2.80;;;;;;;9.92;100.00;101974.56;6177678;28;20054;-73
2023/09/26 06:19:47;;;;;;;8.05;3.33;;;;;;;9.99;100.00;101969.97;6177522;28;20061;-73
2023/09/26 06:22:48;;;;;;;8.48;3.28;;;;;;;10.00;100.00;101964.69;6177649;28;20046;-73
2023/09/26 06:25:58;;;;;;;4.93;2.88;;;;;;;10.06;100.00;101969.72;6177535;28;20343;-73
2023/09/26 06:29:01;;;;;;;4.22;2.83;;;;;;;10.15;100.00;101971.22;6177102;28;20050;-73
2023/09/26 06:32:02;;;;;;;5.68;3.25;;;;;;;10.20;100.00;101971.06;6177643;28;20046;-73
2023/09/26 06:35:04;;;;;;;5.53;2.47;;;;;;;10.23;100.00;101969.19;6177456;28;20061;-73
2023/09/26 06:38:05;;;;;;;5.95;3.10;;;;;;;10.30;100.00;101968.09;6177346;28;20458;-73
2023/09/26 06:41:07;;;;;;;5.75;3.20;;;;;;;10.37;100.00;101961.75;6177055;28;20051;-73
2023/09/26 06:44:10;;;;;;;10.95;3.72;;;;;;;10.41;100.00;101954.63;6177775;28;20130;-73
2023/09/26 06:47:11;;;;;;;7.68;3.70;;;;;;;10.49;100.00;101964.88;6177285;28;20051;-73
2023/09/26 06:50:13;;;;;;;5.18;2.92;;;;;;;10.56;100.00;101959.38;6176876;28;20051;-74
2023/09/26 06:53:14;;;;;;;6.65;3.20;;;;;;;10.63;100.00;101965.28;6177412;28;20061;-74
2023/09/26 06:56:16;;;;;;;6.35;3.28;;;;;;;10.70;100.00;101960.66;6177322;28;20061;-73
2023/09/26 06:59:19;;;;;;;6.10;3.00;;;;;;;10.78;100.00;101950.75;6176940;28;20059;-74
2023/09/26 07:02:20;;;;;;;5.72;3.03;;;;;;;10.83;100.00;101952.31;6205575;28;20085;-74
2023/09/26 07:05:23;;;;;;;4.07;2.20;;;;;;;10.90;100.00;101945.03;6218185;28;20129;-73
2023/09/26 07:08:24;;;;;;;4.93;2.88;;;;;;;10.95;100.00;101948.41;6221621;28;20153;-74
2023/09/26 07:11:26;;;;;;;5.40;2.95;;;;;;;11.00;100.00;101954.34;6196333;28;20438;-74
2023/09/26 07:14:33;;;;;;;5.90;2.80;;;;;;;11.07;100.00;101963.72;6201709;28;20046;-74
2023/09/26 07:17:36;;;;;;;;;;;;;;;11.15;100.00;101959.03;6208880;28;20121;-73
2023/09/26 07:20:44;;;;;;;4.50;2.38;;;;;;;11.22;100.00;101966.69;6204855;28;19929;-73
2023/09/26 07:23:45;;;;;;;5.78;3.30;;;;;;;11.31;100.00;101969.88;6214441;28;20057;-70
2023/09/26 07:26:47;;;;;;;4.05;2.20;;;;;;;11.40;100.00;101966.06;6205843;28;20363;-71
2023/09/26 07:29:52;;;;;;;8.95;4.57;;;;;;;11.49;100.00;101964.81;6205943;28;20049;-72
2023/09/26 07:32:54;;;;;;;8.25;5.10;;;;;;;11.58;100.00;101965.38;6221891;28;20050;-72
2023/09/26 07:35:55;;;;;;;5.50;3.30;;;;;;;11.67;100.00;101966.75;6219254;28;20486;-70
2023/09/26 07:38:57;;;;;;;9.52;3.25;;;;;;;11.75;100.00;101966.47;6222964;28;20092;-71
2023/09/26 07:41:58;;;;;;;5.32;2.22;;;;;;;11.84;100.00;101959.09;6229500;28;20054;-72
2023/09/26 07:45:01;;;;;;;6.60;3.13;;;;;;;11.97;100.00;101974.44;6221902;28;20046;-71
2023/09/26 07:48:03;;;;;;;6.15;2.78;;;;;;;12.06;100.00;101974.94;6204980;28;20054;-72
2023/09/26 07:51:06;;;;;;;6.88;2.25;;;;;;;12.19;100.00;101972.66;6204725;28;20062;-73
2023/09/26 07:54:08;;;;;;;4.55;2.58;;;;;;;12.31;100.00;101976.56;6211793;28;20054;-72
2023/09/26 07:57:09;;;;;;;6.72;2.55;;;;;;;12.43;100.00;101973.44;6208913;28;20061;-74
2023/09/26 08:00:13;;;;;;;4.47;2.75;;;;;;;12.55;100.00;101974.72;6208200;28;20469;-74
2023/09/26 08:03:15;;;;;;;4.18;2.88;;;;;;;12.65;100.00;101973.41;6227935;28;20050;-72
2023/09/26 08:06:16;;;;;;;3.13;2.40;;;;;;;12.73;100.00;101973.94;6228286;28;20073;-73
2023/09/26 08:09:18;;;;;;;7.03;3.70;;;;;;;12.85;100.00;101972.53;6228531;28;20050;-72
2023/09/26 08:12:19;;;;;;;4.78;2.13;;;;;;;12.92;100.00;101966.06;6228968;28;20132;-72
2023/09/26 08:15:22;;;;;;;4.80;2.47;;;;;;;12.94;100.00;101965.09;6214443;28;20354;-73
2023/09/26 08:18:24;;;;;;;4.88;2.88;;;;;;;12.94;100.00;101967.75;6204846;28;20051;-74
2023/09/26 08:21:26;;;;;;;4.55;2.88;;;;;;;13.01;100.00;101972.75;6203746;28;20406;-72
2023/09/26 08:24:28;;;;;;;4.13;2.40;;;;;;;13.08;100.00;101967.13;6204301;28;20125;-74
2023/09/26 08:27:29;;;;;;;3.97;2.85;;;;;;;13.13;100.00;101961.66;6203929;28;20054;-73
2023/09/26 08:30:33;;;;;;;4.63;3.15;;;;;;;13.25;100.00;101970.81;6203920;28;20050;-74
2023/09/26 08:33:35;;;;;;;4.45;2.50;;;;;;;13.32;100.00;101977.56;6203838;28;20057;-75
2023/09/26 08:36:36;;;;;;;3.92;2.05;;;;;;;13.40;100.00;101975.44;6209842;28;20061;-74
2023/09/26 08:39:38;;;;;;;4.60;2.13;;;;;;;13.49;100.00;101976.75;6194289;28;20470;-73
2023/09/26 08:42:41;;;;;;;3.95;2.55;;;;;;;13.62;100.00;101978.75;6213635;28;20061;-73
2023/09/26 08:45:44;;;;;;;3.50;2.25;;;;;;;13.77;100.00;101965.78;6228134;28;20054;-73
2023/09/26 08:48:47;;;;;;;4.72;2.47;;;;;;;13.86;100.00;101973.28;6226254;28;20065;-74
2023/09/26 08:51:48;;;;;;;3.20;2.13;;;;;;;13.93;100.00;101964.97;6203844;28;20050;-73
2023/09/26 08:54:50;;;;;;;5.60;2.55;;;;;;;14.01;100.00;101977.84;6203645;28;20061;-72
2023/09/26 08:57:51;;;;;;;3.60;2.40;;;;;;;14.14;100.00;101978.94;6200944;28;20052;-74
2023/09/26 09:00:56;;;;;;;4.90;2.50;;;;;;;14.25;100.00;101969.63;6210780;28;20046;-73
2023/09/26 09:03:57;;;;;;;3.70;2.65;;;;;;;14.39;100.00;101959.22;6215145;28;20454;-73
2023/09/26 09:07:04;;;;;;;3.53;2.20;;;;;;;14.58;100.00;101964.47;6215527;28;20046;-72
2023/09/26 09:10:07;;;;;;;4.03;2.25;;;;;;;14.64;100.00;101967.69;6214457;28;20104;-73
2023/09/26 09:13:10;;;;;;;5.90;2.25;;;;;;;14.80;100.00;101959.81;6212463;28;20065;-74
2023/09/26 09:16:14;;;;;;;5.22;1.95;;;;;;;14.88;100.00;101941.75;6211434;28;20053;-72
2023/09/26 09:19:15;;;;;;;5.32;1.98;;;;;;;15.05;100.00;101932.06;6214588;28;20046;-74
2023/09/26 09:22:18;;;;;;;2.33;1.77;;;;;;;15.16;100.00;101930.53;6217984;28;20043;-74
2023/09/26 09:25:30;;;;;;;2.85;1.38;;;;;;;15.30;100.00;101934.25;6213816;28;20113;-73
2023/09/26 09:28:31;;;;;;;3.40;2.00;;;;;;;15.41;100.00;101935.38;6203906;28;20457;-73
2023/09/26 09:31:34;;;;;;;4.70;1.63;;;;;;;15.56;100.00;101924.88;6218705;28;20052;-73
2023/09/26 09:34:36;;;;;;;2.97;1.75;;;;;;;15.62;100.00;101921.88;6226871;28;20361;-73
2023/09/26 09:37:37;;;;;;;2.30;1.35;;;;;;;15.62;100.00;101916.56;6221862;28;20069;-72
2023/09/26 09:40:39;;;;;;;2.97;1.75;;;;;;;15.70;100.00;101917.03;6217972;28;20046;-72
2023/09/26 09:43:40;;;;;;;2.60;1.83;;;;;;;15.97;100.00;101911.97;6227046;28;20050;-74
2023/09/26 09:46:44;;;;;;;2.05;1.30;;;;;;;16.17;100.00;101905.53;6226430;28;20053;-74
2023/09/26 09:49:47;;;;;;;2.38;1.50;;;;;;;16.21;100.00;101902.63;6222577;28;20053;-72
2023/09/26 09:52:51;;;;;;;2.75;1.60;;;;;;;16.28;100.00;101904.91;6206655;28;20057;-72
2023/09/26 09:55:53;;;;;;;2.75;1.60;;;;;;;16.42;100.00;101892.50;6201250;28;20052;-73
2023/09/26 09:59:05;;;;;;;2.92;1.67;;;;;;;16.52;100.00;101881.34;6218025;28;20457;-73
2023/09/26 10:02:09;;;;;;;2.97;1.70;;;;;;;16.56;100.00;101888.19;6212213;28;20168;-73
2023/09/26 10:05:13;;;;;;;3.05;1.63;;;;;;;16.79;100.00;101887.66;6218287;28;20481;-73
2023/09/26 10:08:15;;;;;;;2.17;1.40;;;;;;;17.11;100.00;101890.13;6198994;28;20478;-72
2023/09/26 10:11:18;;;;;;;3.30;1.40;;;;;;;17.14;100.00;101882.84;6194648;28;20050;-73
2023/09/26 10:14:22;;;;;;;2.10;1.50;;;;;;;17.20;100.00;101878.94;6213813;28;20068;-72
2023/09/26 10:17:25;;;;;;;3.70;1.45;;;;;;;17.25;100.00;101888.31;6202672;28;20082;-72
2023/09/26 10:20:28;;;;;;;2.05;1.27;;;;;;;17.37;100.00;101885.84;6198136;28;20049;-71
2023/09/26 10:23:30;;;;;;;1.88;1.05;;;;;;;17.39;100.00;101887.44;6210277;28;20069;-72
2023/09/26 10:26:31;;;;;;;1.75;1.20;;;;;;;17.46;100.00;101879.94;6206764;28;20051;-72
2023/09/26 10:29:32;;;;;;;2.88;1.25;;;;;;;17.48;100.00;101881.53;6223859;28;20054;-73
2023/09/26 10:32:36;;;;;;;1.23;1.13;;;;;;;17.49;100.00;101880.59;6211775;28;20042;-71
2023/09/26 10:35:44;;;;;;;2.90;1.70;;;;;;;17.67;100.00;101875.06;6209729;28;20057;-71
2023/09/26 10:38:58;;;;;;;1.45;1.02;;;;;;;17.72;100.00;101876.44;6213987;28;20057;-73
2023/09/26 10:42:01;;;;;;;3.00;1.58;;;;;;;17.74;100.00;101871.06;6222741;28;20442;-73
2023/09/26 10:45:02;;;;;;;3.75;1.17;;;;;;;17.80;100.00;101883.09;6224095;28;20330;-74
2023/09/26 10:48:08;;;;;;;4.45;1.35;;;;;;;17.92;100.00;101866.31;6215240;28;20057;-74
2023/09/26 10:51:10;;;;;;;2.22;1.40;;;;;;;18.03;100.00;101869.09;6225573;28;20049;-73
2023/09/26 10:54:11;;;;;;;3.47;1.30;;;;;;;18.10;100.00;101864.25;6225902;28;20054;-74
2023/09/26 10:57:17;;;;;;;2.30;1.40;;;;;;;18.14;100.00;101861.28;6204103;28;20427;-74
2023/09/26 11:00:19;;;;;;;2.08;1.40;;;;;;;18.19;100.00;101860.97;6201227;28;20054;-74
2023/09/26 11:03:22;;;;;;;1.92;1.27;;;;;;;18.31;100.00;101859.28;6201243;28;20046;-74
2023/09/26 11:06:23;;;;;;;3.10;1.20;;;;;;;18.42;100.00;101856.75;6201191;28;20058;-74
2023/09/26 11:09:25;;;;;;;2.95;1.00;;;;;;;18.52;100.00;101852.47;6200988;28;20054;-74
2023/09/26 11:12:27;;;;;;;2.33;1.45;;;;;;;18.60;100.00;101847.47;6201979;28;20053;-74
2023/09/26 11:15:30;;;;;;;3.75;1.50;;;;;;;18.74;100.00;101849.22;6217825;28;20050;-74
2023/09/26 11:18:33;;;;;;;1.67;1.33;;;;;;;18.90;100.00;101849.84;6212871;28;20065;-74
2023/09/26 11:21:34;;;;;;;2.80;1.38;;;;;;;18.99;100.00;101859.84;6206078;28;20042;-74
2023/09/26 11:24:36;;;;;;;1.98;1.17;;;;;;;19.10;100.00;101860.88;6199476;28;20454;-73
2023/09/26 11:27:39;;;;;;;4.30;1.70;;;;;;;19.15;100.00;101856.06;6205836;28;20054;-73
2023/09/26 11:30:40;;;;;;;4.53;1.15;;;;;;;19.28;100.00;101856.91;6202558;28;20514;-74
2023/09/26 11:33:44;;;;;;;2.60;1.10;;;;;;;19.40;100.00;101849.84;6210601;28;20050;-74
2023/09/26 11:36:45;;;;;;;2.22;0.85;;;;;;;19.69;100.00;101853.06;6217273;28;20057;-74
2023/09/26 11:39:51;;;;;;;1.50;1.20;;;;;;;19.96;100.00;101839.47;6224812;28;20353;-74
2023/09/26 11:42:55;;;;;;;1.58;1.20;;;;;;;20.14;100.00;101839.88;6229574;28;20461;-73
2023/09/26 11:46:02;;;;;;;3.08;1.25;;;;;;;20.40;100.00;101836.06;6229485;28;20196;-73
2023/09/26 11:49:05;;;;;;;1.75;1.00;;;;;;;20.72;100.00;101830.91;6214805;28;20171;-74
2023/09/26 11:52:06;;;;;;;1.73;1.15;;;;;;;21.06;100.00;101827.34;6207891;28;20042;-73
2023/09/26 11:55:09;;;;;;;2.08;1.20;;;;;;;21.23;100.00;101829.53;6210123;28;20058;-74
2023/09/26 11:58:10;;;;;;;4.63;1.20;;;;;;;21.37;100.00;101821.25;6209174;28;20052;-74
2023/09/26 12:01:11;;;;;;;1.73;1.02;;;;;;;21.59;100.00;101817.66;6214662;28;20049;-73
2023/09/26 12:04:14;;;;;;;2.10;1.10;;;;;;;21.76;100.00;101810.91;6202983;28;20454;-75
2023/09/26 12:07:16;;;;;;;2.13;1.08;;;;;;;21.88;100.00;101803.66;6212125;28;20058;-74
2023/09/26 12:10:19;;;;;;;2.03;1.10;;;;;;;22.06;100.00;101795.91;6207076;28;20046;-74
2023/09/26 12:13:21;;;;;;;1.50;0.90;;;;;;;22.25;100.00;101796.06;6220563;28;20049;-74
2023/09/26 12:16:22;;;;;;;1.95;1.00;;;;;;;22.35;100.00;101798.81;6225265;28;20053;-74
2023/09/26 12:19:25;;;;;;;2.75;1.25;;;;;;;22.44;100.00;101790.81;6204907;28;20046;-74
2023/09/26 12:22:27;;;;;;;1.40;0.75;;;;;;;22.55;83.44;101787.19;6199431;28;20049;-74
2023/09/26 12:25:28;;;;;;;2.80;0.90;;;;;;;22.73;63.18;101798.13;6209301;28;20691;-74
2023/09/26 12:28:30;;;;;;;1.73;1.27;;;;;;;22.69;61.40;101789.50;6205504;28;20354;-73
2023/09/26 12:31:32;;;;;;;4.55;1.02;;;;;;;22.78;61.66;101777.13;6216739;28;20043;-73
2023/09/26 12:34:35;;;;;;;1.65;1.08;;;;;;;22.95;58.09;101781.88;6214455;28;20471;-74
2023/09/26 12:37:36;;;;;;;1.08;0.82;;;;;;;23.23;63.23;101779.38;6209842;28;20049;-74
2023/09/26 12:40:38;;;;;;;2.38;1.20;;;;;;;23.47;56.66;101774.47;6179766;28;20054;-73
2023/09/26 12:43:40;;;;;;;1.80;0.80;;;;;;;23.46;57.46;101774.59;6179657;28;20101;-74
2023/09/26 12:46:42;;;;;;;1.73;1.00;;;;;;;23.69;60.89;101778.72;6179626;28;20470;-73
2023/09/26 12:49:47;;;;;;;2.30;1.30;;;;;;;23.72;58.42;101766.88;6179982;28;20058;-74
2023/09/26 12:52:48;;;;;;;1.73;0.82;;;;;;;23.86;57.44;101769.13;6179388;28;20046;-74
2023/09/26 12:55:51;;;;;;;1.00;0.80;;;;;;;23.98;52.76;101769.78;6179508;28;20075;-74
2023/09/26 12:58:52;;;;;;;3.03;1.17;;;;;;;24.17;53.66;101763.56;6178964;28;20054;-73
2023/09/26 13:01:54;;;;;;;0.85;0.68;;;;;;;24.19;51.51;101773.13;6179014;28;20043;-73
2023/09/26 13:04:58;;;;;;;1.05;0.50;;;;;;;24.23;52.03;101771.00;6179270;28;20077;-74
2023/09/26 13:07:59;;;;;;;1.02;0.68;;;;;;;24.10;50.39;101768.63;6179272;28;20086;-73
2023/09/26 13:11:01;;;;;;;1.67;0.70;;;;;;;23.92;45.21;101768.53;6181080;28;20351;-74
2023/09/26 13:14:02;;;;;;;3.35;0.98;;;;;;;23.64;45.92;101764.88;6201227;28;20046;-72
2023/09/26 13:17:05;;;;;;;1.85;0.95;;;;;;;23.80;47.46;101761.66;6218979;28;20061;-73
2023/09/26 13:20:10;;;;;;;1.77;0.90;;;;;;;23.93;45.24;101759.47;6211717;28;20054;-73
2023/09/26 13:23:12;;;;;;;3.15;0.80;;;;;;;23.99;48.61;101752.72;6203121;28;20038;-74
2023/09/26 13:26:14;;;;;;;1.20;0.80;;;;;;;23.70;45.61;101750.88;6202989;28;20057;-74
2023/09/26 13:29:15;;;;;;;1.40;0.88;;;;;;;23.48;51.20;101743.97;6197122;28;20395;-74
2023/09/26 13:32:16;;;;;;;2.10;0.98;;;;;;;23.48;50.82;101745.78;6217419;28;20044;-74
2023/09/26 13:35:19;;;;;;;2.13;0.90;;;;;;;23.44;53.13;101739.88;6218698;28;20046;-74
2023/09/26 13:38:21;;;;;;;0.95;0.73;;;;;;;23.25;51.65;101729.13;6216106;28;20049;-74
2023/09/26 13:41:22;;;;;;;1.15;1.00;;;;;;;23.12;51.73;101737.47;6226700;28;20354;-73
2023/09/26 13:44:23;;;;;;;1.30;0.52;;;;;;;23.22;50.57;101740.16;6216140;28;20057;-72
2023/09/26 13:47:25;;;;;;;1.33;0.82;;;;;;;23.39;47.82;101736.78;6191892;28;20097;-72
2023/09/26 13:50:28;;;;;;;2.55;1.00;;;;;;;23.35;51.75;101740.72;6195746;28;20104;-72
2023/09/26 13:53:30;;;;;;;1.23;0.80;;;;;;;23.22;51.39;101737.47;6211312;28;20046;-72
2023/09/26 13:56:31;;;;;;;1.52;0.80;;;;;;;22.91;53.47;101728.66;6208621;28;20057;-72
2023/09/26 13:59:33;;;;;;;1.42;0.60;;;;;;;22.71;50.13;101735.75;6202060;28;20476;-72